Time;durP1;ratioP1;P1;durP2;ratioP2;P2;SDS_P1;SDS_P2;PMS_P1;PMS_P2;Temp;Humidity;BMP_temperature;BMP_pressure;BME280_temperature;BME280_humidity;BME280_pressure;Samples;Min_cycle;Max_cycle;Signal;HPM_P1;HPM_P2
2021/10/16 00:00:49;;;;;;;;;;;;;;;4.23;100.00;101198.03;5093922;28;20449;-71
2021/10/16 00:03:15;;;;;;;;;;;;;;;4.21;100.00;101201.72;5093772;28;19970;-71
2021/10/16 00:05:42;;;;;;;;;;;;;;;4.19;100.00;101199.97;5093723;28;20019;-71
2021/10/16 00:08:08;;;;;;;;;;;;;;;4.21;100.00;101201.72;5093507;28;19932;-71
2021/10/16 00:10:34;;;;;;;;;;;;;;;4.21;100.00;101207.97;5093558;28;20018;-72
2021/10/16 00:13:01;;;;;;;;;;;;;;;4.16;100.00;101199.25;5093899;28;20014;-72
2021/10/16 00:15:29;;;;;;;;;;;;;;;4.15;100.00;101206.44;5093386;28;20474;-71
2021/10/16 00:17:55;;;;;;;;;;;;;;;4.18;100.00;101208.09;5093193;28;19963;-72
2021/10/16 00:20:21;;;;;;;;;;;;;;;4.17;100.00;101212.63;5093473;28;19992;-72
2021/10/16 00:22:47;;;;;;;;;;;;;;;4.21;100.00;101207.09;5093539;28;20022;-71
2021/10/16 00:25:14;;;;;;;;;;;;;;;4.23;100.00;101213.28;5093296;28;20027;-71
2021/10/16 00:27:40;;;;;;;;;;;;;;;4.29;100.00;101215.66;5092964;28;20014;-70
2021/10/16 00:30:07;;;;;;;;;;;;;;;4.32;100.00;101215.53;5093364;28;19924;-70
2021/10/16 00:32:34;;;;;;;;;;;;;;;4.33;100.00;101215.47;5093464;28;19967;-70
2021/10/16 00:35:01;;;;;;;;;;;;;;;4.31;100.00;101220.03;5093110;28;20019;-71
2021/10/16 00:37:27;;;;;;;;;;;;;;;4.30;100.00;101217.41;5093002;28;19973;-70
2021/10/16 00:39:55;;;;;;;;;;;;;;;4.29;100.00;101227.31;5091909;28;19967;-71
2021/10/16 00:42:21;;;;;;;;;;;;;;;4.29;100.00;101224.63;5091767;28;19951;-71
2021/10/16 00:44:48;;;;;;;;;;;;;;;4.30;100.00;101223.69;5091499;28;19963;-71
2021/10/16 00:47:14;;;;;;;;;;;;;;;4.30;100.00;101228.16;5092706;28;19966;-70
2021/10/16 00:49:42;;;;;;;;;;;;;;;4.34;100.00;101219.00;5091647;28;20023;-71
2021/10/16 00:52:08;;;;;;;;;;;;;;;4.37;100.00;101224.25;5092724;28;19967;-70
2021/10/16 00:54:35;;;;;;;;;;;;;;;4.42;100.00;101226.72;5092615;28;19931;-70
2021/10/16 00:57:02;;;;;;;;;;;;;;;4.42;100.00;101227.56;5091463;28;19964;-70
2021/10/16 00:59:29;;;;;;;;;;;;;;;4.42;100.00;101226.72;5091531;28;19939;-70
2021/10/16 01:01:56;;;;;;;;;;;;;;;4.35;100.00;101227.00;5090861;28;19924;-70
2021/10/16 01:04:22;;;;;;;;;;;;;;;4.34;100.00;101229.75;5092048;28;19969;-70
2021/10/16 01:06:58;;;;;;;;;;;;;;;4.33;100.00;101225.34;5091170;28;19952;-70
2021/10/16 01:09:25;;;;;;;;;;;;;;;4.31;100.00;101225.41;5091446;28;20295;-71
2021/10/16 01:11:53;;;;;;;;;;;;;;;4.33;100.00;101222.66;5092424;28;19962;-70
2021/10/16 01:14:20;;;;;;;;;;;;;;;4.32;100.00;101223.59;5091043;28;19924;-70
2021/10/16 01:16:49;;;;;;;;;;;;;;;4.31;100.00;101220.03;5091113;28;19928;-70
2021/10/16 01:19:17;;;;;;;;;;;;;;;4.31;100.00;101216.47;5092345;28;19946;-71
2021/10/16 01:21:46;;;;;;;;;;;;;;;4.37;100.00;101218.88;5092543;28;19931;-70
2021/10/16 01:24:13;;;;;;;;;;;;;;;4.36;100.00;101222.50;5091881;28;19928;-70
2021/10/16 01:26:40;;;;;;;;;;;;;;;4.38;100.00;101219.75;5092055;28;19935;-71
2021/10/16 01:29:08;;;;;;;;;;;;;;;4.39;100.00;101222.34;5091946;28;19967;-70
2021/10/16 01:31:34;;;;;;;;;;;;;;;4.37;100.00;101226.94;5090814;28;19932;-70
2021/10/16 01:34:01;;;;;;;;;;;;;;;4.32;100.00;101228.97;5091990;28;20357;-70
2021/10/16 01:36:38;;;;;;;;;;;;;;;4.31;100.00;101230.78;5091770;28;19928;-70
2021/10/16 01:39:06;;;;;;;;;;;;;;;4.32;100.00;101239.72;5091920;28;19934;-71
2021/10/16 01:41:32;;;;;;;;;;;;;;;4.24;100.00;101233.84;5090413;28;19924;-70
2021/10/16 01:44:00;;;;;;;;;;;;;;;4.11;100.00;101231.69;5091405;28;20028;-70
2021/10/16 01:46:26;;;;;;;;;;;;;;;4.03;100.00;101236.56;5091804;28;20387;-70
2021/10/16 01:48:53;;;;;;;;;;;;;;;3.96;100.00;101233.28;5090635;28;20359;-70
2021/10/16 01:51:20;;;;;;;;;;;;;;;3.89;100.00;101241.69;5090366;28;20347;-70
2021/10/16 01:53:47;;;;;;;;;;;;;;;3.88;100.00;101237.28;5090705;28;19924;-70
2021/10/16 01:56:14;;;;;;;;;;;;;;;3.87;100.00;101244.44;5091585;28;20018;-70
2021/10/16 01:58:45;;;;;;;;;;;;;;;3.79;100.00;101241.22;5090314;28;20018;-71
2021/10/16 02:01:22;;;;;;;;;;;;;;;3.75;100.00;101237.81;5090470;28;20208;-72
2021/10/16 02:03:54;;;;;;;;;;;;;;;3.81;100.00;101242.06;5090367;28;19931;-71
2021/10/16 02:06:25;;;;;;;;;;;;;;;3.85;100.00;101243.66;5090201;28;19978;-70
2021/10/16 02:08:55;;;;;;;;;;;;;;;3.86;100.00;101240.00;5090365;28;19924;-68
2021/10/16 02:11:23;;;;;;;;;;;;;;;3.85;100.00;101239.16;5090101;28;19924;-68
2021/10/16 02:13:53;;;;;;;;;;;;;;;3.87;100.00;101240.91;5089506;28;19990;-68
2021/10/16 02:16:20;;;;;;;;;;;;;;;3.80;100.00;101241.16;5089976;28;19931;-68
2021/10/16 02:18:52;;;;;;;;;;;;;;;3.74;100.00;101246.81;5090164;28;20399;-68
2021/10/16 02:21:20;;;;;;;;;;;;;;;3.76;100.00;101244.94;5090209;28;20014;-68
2021/10/16 02:23:47;;;;;;;;;;;;;;;3.78;100.00;101243.06;5090103;28;19924;-68
2021/10/16 02:26:16;;;;;;;;;;;;;;;3.76;100.00;101252.13;5089796;28;19931;-68
2021/10/16 02:28:47;;;;;;;;;;;;;;;3.72;100.00;101256.75;5090135;28;19928;-68
2021/10/16 02:31:24;;;;;;;;;;;;;;;3.67;100.00;101256.97;5089998;28;20452;-68
2021/10/16 02:33:53;;;;;;;;;;;;;;;3.63;100.00;101254.47;5090107;28;19930;-68
2021/10/16 02:36:19;;;;;;;;;;;;;;;3.60;100.00;101255.47;5089676;28;19932;-68
2021/10/16 02:38:46;;;;;;;;;;;;;;;3.62;100.00;101260.75;5089918;28;19993;-68
2021/10/16 02:41:12;;;;;;;;;;;;;;;3.61;100.00;101259.03;5089855;28;19924;-68
2021/10/16 02:43:39;;;;;;;;;;;;;;;3.51;100.00;101262.13;5089786;28;19979;-68
2021/10/16 02:46:07;;;;;;;;;;;;;;;3.49;100.00;101263.13;5089714;28;19924;-68
2021/10/16 02:48:34;;;;;;;;;;;;;;;3.47;100.00;101268.53;5089906;28;19956;-68
2021/10/16 02:51:00;;;;;;;;;;;;;;;3.44;100.00;101270.50;5089952;28;19970;-68
2021/10/16 02:53:26;;;;;;;;;;;;;;;3.46;100.00;101268.59;5089690;28;19954;-68
2021/10/16 02:56:01;;;;;;;;;;;;;;;3.54;100.00;101268.28;5089445;28;19939;-68
2021/10/16 02:58:30;;;;;;;;;;;;;;;3.60;100.00;101268.88;5089733;28;20698;-68
2021/10/16 03:00:56;;;;;;;;;;;;;;;3.63;100.00;101273.25;5089825;28;19924;-68
2021/10/16 03:03:24;;;;;;;;;;;;;;;3.63;100.00;101266.06;5089738;28;19924;-68
2021/10/16 03:05:50;;;;;;;;;;;;;;;3.65;100.00;101271.41;5090876;28;19989;-68
2021/10/16 03:08:18;;;;;;;;;;;;;;;3.65;100.00;101272.25;5089764;28;19924;-69
2021/10/16 03:10:44;;;;;;;;;;;;;;;3.65;100.00;101274.94;5090958;28;19963;-70
2021/10/16 03:13:15;;;;;;;;;;;;;;;3.67;100.00;101272.19;5089614;28;20481;-70
2021/10/16 03:15:42;;;;;;;;;;;;;;;3.67;100.00;101264.13;5072605;28;20014;-70
2021/10/16 03:18:09;;;;;;;;;;;;;;;3.70;100.00;101266.66;5090609;28;19964;-70
2021/10/16 03:20:36;;;;;;;;;;;;;;;3.73;100.00;101266.56;5089649;28;19932;-70
2021/10/16 03:23:07;;;;;;;;;;;;;;;3.78;100.00;101271.72;5089476;28;19924;-70
2021/10/16 03:25:36;;;;;;;;;;;;;;;3.86;100.00;101272.25;5093022;28;20354;-70
2021/10/16 03:28:03;;;;;;;;;;;;;;;3.90;100.00;101281.03;5093404;28;19931;-70
2021/10/16 03:30:30;;;;;;;;;;;;;;;3.97;100.00;101274.47;5093093;28;20014;-70
2021/10/16 03:32:56;;;;;;;;;;;;;;;4.04;100.00;101278.63;5092929;28;20015;-71
2021/10/16 03:35:23;;;;;;;;;;;;;;;4.12;100.00;101280.97;5094077;28;19931;-70
2021/10/16 03:37:51;;;;;;;;;;;;;;;4.14;100.00;101271.88;5094132;28;19924;-70
2021/10/16 03:40:17;;;;;;;;;;;;;;;4.21;100.00;101268.91;5093045;28;20276;-71
2021/10/16 03:42:43;;;;;;;;;;;;;;;4.25;100.00;101265.13;5093067;28;19924;-71
2021/10/16 03:45:16;;;;;;;;;;;;;;;4.31;100.00;101273.78;5092937;28;19924;-71
2021/10/16 03:47:43;;;;;;;;;;;;;;;4.36;100.00;101270.91;5095365;28;19927;-72
2021/10/16 03:50:10;;;;;;;;;;;;;;;4.39;100.00;101262.69;5093062;28;19942;-71
2021/10/16 03:52:37;;;;;;;;;;;;;;;4.43;100.00;101269.66;5092499;28;20291;-71
2021/10/16 03:55:06;;;;;;;;;;;;;;;4.47;100.00;101278.47;5092757;28;19946;-70
2021/10/16 03:57:33;;;;;;;;;;;;;;;4.50;100.00;101273.81;5093775;28;20375;-70
2021/10/16 03:59:59;;;;;;;;;;;;;;;4.52;100.00;101282.66;5092655;28;19966;-70
2021/10/16 04:02:27;;;;;;;;;;;;;;;4.57;100.00;101282.47;5092614;28;20389;-70
2021/10/16 04:04:54;;;;;;;;;;;;;;;4.60;100.00;101276.94;5092537;28;19989;-70
2021/10/16 04:07:20;;;;;;;;;;;;;;;4.63;100.00;101281.28;5092319;28;19932;-71
2021/10/16 04:09:52;;;;;;;;;;;;;;;4.66;100.00;101286.53;5092274;28;19928;-71
2021/10/16 04:12:19;;;;;;;;;;;;;;;4.67;100.00;101285.59;5092411;28;20019;-70
2021/10/16 04:14:47;;;;;;;;;;;;;;;4.69;100.00;101295.31;5092301;28;19924;-70
2021/10/16 04:17:18;;;;;;;;;;;;;;;4.70;100.00;101293.50;5092302;28;20280;-70
2021/10/16 04:19:44;;;;;;;;;;;;;;;4.73;100.00;101292.47;5093541;28;20413;-71
2021/10/16 04:22:11;;;;;;;;;;;;;;;4.73;100.00;101296.06;5092286;28;20031;-71
2021/10/16 04:24:38;;;;;;;;;;;;;;;4.74;100.00;101289.72;5092131;28;19978;-70
2021/10/16 04:27:04;;;;;;;;;;;;;;;4.75;100.00;101291.47;5091647;28;20120;-70
2021/10/16 04:29:34;;;;;;;;;;;;;;;4.79;100.00;101290.38;5091975;28;19931;-71
2021/10/16 04:32:07;;;;;;;;;;;;;;;4.80;100.00;101294.81;5092134;28;19924;-70
2021/10/16 04:34:34;;;;;;;;;;;;;;;4.83;100.00;101296.47;5092126;28;19928;-70
2021/10/16 04:37:00;;;;;;;;;;;;;;;4.85;100.00;101292.78;5091017;28;20022;-71
2021/10/16 04:39:28;;;;;;;;;;;;;;;4.88;100.00;101293.56;5091886;28;19932;-71
2021/10/16 04:41:55;;;;;;;;;;;;;;;4.91;100.00;101298.81;5092033;28;19966;-71
2021/10/16 04:44:22;;;;;;;;;;;;;;;4.91;100.00;101296.97;5091579;28;19924;-70
2021/10/16 04:46:51;;;;;;;;;;;;;;;4.93;100.00;101304.97;5091763;28;20307;-71
2021/10/16 04:49:18;;;;;;;;;;;;;;;4.94;100.00;101286.06;5091778;28;19924;-71
2021/10/16 04:51:45;;;;;;;;;;;;;;;4.96;100.00;101281.50;5091700;28;19997;-70
2021/10/16 04:54:17;;;;;;;;;;;;;;;5.00;100.00;101296.53;5091666;28;19924;-70
2021/10/16 04:56:45;;;;;;;;;;;;;;;5.03;100.00;101292.81;5095156;28;19928;-71
2021/10/16 04:59:12;;;;;;;;;;;;;;;5.03;100.00;101298.19;5103861;28;19924;-71
2021/10/16 05:01:39;;;;;;;;;;;;;;;5.06;100.00;101294.50;5092889;28;19962;-71
2021/10/16 05:04:07;;;;;;;;;;;;;;;5.09;100.00;101294.34;5109683;28;19923;-71
2021/10/16 05:06:33;;;;;;;;;;;;;;;5.10;100.00;101305.00;5112731;28;19984;-71
2021/10/16 05:09:01;;;;;;;;;;;;;;;5.12;100.00;101304.97;5111740;28;19977;-71
2021/10/16 05:11:28;;;;;;;;;;;;;;;5.11;100.00;101304.06;5111111;28;19990;-70
2021/10/16 05:13:55;;;;;;;;;;;;;;;5.13;100.00;101314.75;5111438;28;19924;-70
2021/10/16 05:16:21;;;;;;;;;;;;;;;5.15;100.00;101313.75;5102281;28;19924;-70
2021/10/16 05:18:48;;;;;;;;;;;;;;;5.16;100.00;101306.56;5090969;28;19986;-70
2021/10/16 05:21:16;;;;;;;;;;;;;;;5.15;100.00;101319.13;5091229;28;20455;-70
2021/10/16 05:23:43;;;;;;;;;;;;;;;5.16;100.00;101314.63;5090917;28;19931;-70
2021/10/16 05:26:10;;;;;;;;;;;;;;;5.17;100.00;101316.34;5092112;28;20074;-70
2021/10/16 05:28:36;;;;;;;;;;;;;;;5.17;100.00;101316.34;5090961;28;19924;-70
2021/10/16 05:31:03;;;;;;;;;;;;;;;5.17;100.00;101322.63;5092216;28;19978;-70
2021/10/16 05:33:30;;;;;;;;;;;;;;;5.18;100.00;101321.69;5090543;28;20399;-70
2021/10/16 05:36:00;;;;;;;;;;;;;;;5.19;100.00;101326.09;5090391;28;20001;-70
2021/10/16 05:38:28;;;;;;;;;;;;;;;5.20;100.00;101327.00;5090375;28;19971;-71
2021/10/16 05:40:55;;;;;;;;;;;;;;;5.23;100.00;101328.66;5101694;28;19970;-70
2021/10/16 05:43:24;;;;;;;;;;;;;;;5.22;100.00;101335.84;5108449;28;20011;-70
2021/10/16 05:45:54;;;;;;;;;;;;;;;5.22;100.00;101337.69;5110432;28;20314;-70
2021/10/16 05:48:21;;;;;;;;;;;;;;;5.23;100.00;101352.88;5110411;28;20015;-70
2021/10/16 05:50:47;;;;;;;;;;;;;;;5.22;100.00;101354.69;5092939;28;20414;-70
2021/10/16 05:53:16;;;;;;;;;;;;;;;5.25;100.00;101359.94;5090027;28;20089;-70
2021/10/16 05:55:43;;;;;;;;;;;;;;;5.27;100.00;101349.09;5090353;28;19924;-70
2021/10/16 05:58:10;;;;;;;;;;;;;;;5.31;100.00;101348.84;5090197;28;19967;-70
2021/10/16 06:00:37;;;;;;;;;;;;;;;5.35;100.00;101358.53;5097413;28;19927;-70
2021/10/16 06:03:03;;;;;;;;;;;;;;;5.35;100.00;101363.91;5111939;28;19976;-70
2021/10/16 06:05:48;;;;;;;;;;;;;;;5.40;100.00;101352.03;5093140;28;20294;-71
2021/10/16 06:08:14;;;;;;;;;;;;;;;5.44;100.00;101359.00;5110382;28;19924;-71
2021/10/16 06:10:40;;;;;;;;;;;;;;;5.49;100.00;101368.63;5100873;28;19928;-70
2021/10/16 06:13:10;;;;;;;;;;;;;;;5.53;100.00;101372.91;5101962;28;20365;-70
2021/10/16 06:15:36;;;;;;;;;;;;;;;5.59;100.00;101378.94;5110285;28;19923;-70
2021/10/16 06:18:09;;;;;;;;;;;;;;;5.61;100.00;101372.53;5110546;28;20014;-70
2021/10/16 06:20:35;;;;;;;;;;;;;;;5.68;100.00;101379.34;5103973;28;20021;-70
2021/10/16 06:23:03;;;;;;;;;;;;;;;5.76;100.00;101373.56;5090217;28;20034;-70
2021/10/16 06:25:29;;;;;;;;;;;;;;;5.84;100.00;101387.53;5076151;28;19947;-70
2021/10/16 06:27:55;;;;;;;;;;;;;;;5.85;100.00;101386.59;5091021;28;19924;-70
2021/10/16 06:30:23;;;;;;;;;;;;;;;5.89;100.00;101384.59;5106706;28;19924;-70
2021/10/16 06:32:51;;;;;;;;;;;;;;;5.94;100.00;101387.06;5073135;28;19961;-70
2021/10/16 06:35:18;;;;;;;;;;;;;;;5.98;100.00;101381.44;5090059;28;19977;-70
2021/10/16 06:37:47;;;;;;;;;;;;;;;6.05;100.00;101375.75;5090034;28;19941;-71
2021/10/16 06:40:13;;;;;;;;;;;;;;;6.10;100.00;101393.41;5102061;28;19924;-71
2021/10/16 06:42:42;;;;;;;;;;;;;;;6.14;100.00;101395.00;5110541;28;19955;-70
2021/10/16 06:45:28;;;;;;;;;;;;;;;6.19;100.00;101392.94;5111488;28;20302;-72
2021/10/16 06:48:04;;;;;;;;;;;;;;;6.24;100.00;101384.63;5096328;28;19950;-72
2021/10/16 06:50:53;;;;;;;;;;;;;;;6.26;100.00;101398.03;5090051;28;19925;-72
2021/10/16 06:53:19;;;;;;;;;;;;;;;6.36;100.00;101399.31;5089823;28;19924;-72
2021/10/16 06:55:46;;;;;;;;;;;;;;;6.43;100.00;101395.31;5094187;28;20062;-73
2021/10/16 06:58:12;;;;;;;;;;;;;;;6.57;100.00;101397.25;5110262;28;19928;-73
2021/10/16 07:00:40;;;;;;;;;;;;;;;6.60;100.00;101401.63;5115273;28;19947;-73
2021/10/16 07:03:28;;;;;;;;;;;;;;;6.65;100.00;101403.09;5115334;28;19923;-74
2021/10/16 07:05:54;;;;;;;;;;;;;;;6.70;100.00;101403.72;5108321;28;20018;-73
2021/10/16 07:08:20;;;;;;;;;;;;;;;6.75;100.00;101408.00;5099678;28;19946;-72
2021/10/16 07:10:47;;;;;;;;;;;;;;;6.79;100.00;101402.38;5115171;28;19924;-72
2021/10/16 07:13:13;;;;;;;;;;;;;;;6.81;100.00;101408.53;5115224;28;20379;-72
2021/10/16 07:15:41;;;;;;;;;;;;;;;6.87;100.00;101410.91;5110240;28;19931;-73
2021/10/16 07:18:07;;;;;;;;;;;;;;;6.98;100.00;101399.53;5093498;28;19924;-74
2021/10/16 07:20:33;;;;;;;;;;;;;;;7.09;100.00;101401.63;5094716;28;19967;-73
2021/10/16 07:23:00;;;;;;;;;;;;;;;7.23;100.00;101408.97;5097099;28;20015;-73
2021/10/16 07:25:26;;;;;;;;;;;;;;;7.34;100.00;101416.47;5114352;28;20023;-74
2021/10/16 07:27:54;;;;;;;;;;;;;;;7.43;100.00;101418.66;5114630;28;20019;-73
2021/10/16 07:30:20;;;;;;;;;;;;;;;7.49;100.00;101423.69;5105910;28;19972;-74
2021/10/16 07:32:48;;;;;;;;;;;;;;;7.47;100.00;101414.81;5096431;28;20310;-73
2021/10/16 07:35:15;;;;;;;;;;;;;;;7.45;100.00;101423.94;5094252;28;20031;-72
2021/10/16 07:37:41;;;;;;;;;;;;;;;7.49;100.00;101429.06;5094154;28;20018;-73
2021/10/16 07:40:08;;;;;;;;;;;;;;;7.53;100.00;101425.25;5096482;28;19931;-73
2021/10/16 07:42:35;;;;;;;;;;;;;;;7.54;100.00;101424.28;5103493;28;20030;-73
2021/10/16 07:45:01;;;;;;;;;;;;;;;7.65;100.00;101434.47;5103787;28;19946;-72
2021/10/16 07:47:27;;;;;;;;;;;;;;;7.79;100.00;101431.00;5104608;28;20015;-73
2021/10/16 07:49:55;;;;;;;;;;;;;;;7.81;100.00;101434.44;5102846;28;19924;-72
2021/10/16 07:52:22;;;;;;;;;;;;;;;7.92;100.00;101430.25;5103538;28;19924;-73
2021/10/16 07:54:48;;;;;;;;;;;;;;;7.99;100.00;101419.00;5106926;28;19970;-72
2021/10/16 07:57:15;;;;;;;;;;;;;;;8.10;100.00;101429.16;5114494;28;20454;-73
2021/10/16 07:59:41;;;;;;;;;;;;;;;8.24;100.00;101438.28;5112704;28;20451;-72
2021/10/16 08:02:07;;;;;;;;;;;;;;;8.37;100.00;101442.84;5112644;28;19930;-72
2021/10/16 08:04:34;;;;;;;;;;;;;;;8.54;100.00;101438.31;5112371;28;20034;-72
2021/10/16 08:07:01;;;;;;;;;;;;;;;8.62;100.00;101432.41;5112241;28;19963;-73
2021/10/16 08:09:28;;;;;;;;;;;;;;;8.76;100.00;101437.81;5110714;28;19927;-74
2021/10/16 08:11:56;;;;;;;;;;;;;;;8.85;100.00;101429.13;5110873;28;19976;-73
2021/10/16 08:14:22;;;;;;;;;;;;;;;8.99;100.00;101432.81;5111857;28;20015;-73
2021/10/16 08:16:49;;;;;;;;;;;;;;;9.10;100.00;101432.13;5113724;28;20022;-74
2021/10/16 08:19:15;;;;;;;;;;;;;;;9.30;100.00;101433.53;5113642;28;19985;-73
2021/10/16 08:21:42;;;;;;;;;;;;;;;9.48;100.00;101426.94;5114020;28;20023;-73
2021/10/16 08:24:09;;;;;;;;;;;;;;;9.67;100.00;101425.72;5113659;28;19924;-73
2021/10/16 08:26:36;;;;;;;;;;;;;;;9.74;100.00;101427.06;5113810;28;19983;-73
2021/10/16 08:29:02;;;;;;;;;;;;;;;9.96;100.00;101431.06;5113788;28;20027;-73
2021/10/16 08:31:29;;;;;;;;;;;;;;;9.92;100.00;101424.97;5113597;28;19963;-74
2021/10/16 08:33:55;;;;;;;;;;;;;;;9.67;100.00;101425.72;5113587;28;20444;-74
2021/10/16 08:36:21;;;;;;;;;;;;;;;9.51;100.00;101426.75;5113220;28;20355;-74
2021/10/16 08:38:48;;;;;;;;;;;;;;;9.49;100.00;101433.25;5113041;28;20026;-70
2021/10/16 08:41:15;;;;;;;;;;;;;;;9.42;100.00;101442.72;5112968;28;19932;-70
2021/10/16 08:43:42;;;;;;;;;;;;;;;9.41;100.00;101440.97;5113032;28;19930;-70
2021/10/16 08:46:08;;;;;;;;;;;;;;;9.54;100.00;101448.22;5113241;28;19924;-70
2021/10/16 08:48:34;;;;;;;;;;;;;;;9.54;100.00;101444.66;5113046;28;20521;-70
2021/10/16 08:51:01;;;;;;;;;;;;;;;9.61;100.00;101443.28;5113070;28;19924;-70
2021/10/16 08:53:28;;;;;;;;;;;;;;;9.67;100.00;101447.41;5112810;28;19974;-69
2021/10/16 08:55:54;;;;;;;;;;;;;;;9.69;100.00;101437.34;5112905;28;19931;-69
2021/10/16 08:58:22;;;;;;;;;;;;;;;9.67;100.00;101442.88;5112675;28;20367;-69
2021/10/16 09:00:52;;;;;;;;;;;;;;;9.65;100.00;101438.53;5112965;28;20010;-69
2021/10/16 09:03:21;;;;;;;;;;;;;;;9.74;100.00;101434.31;5113030;28;19930;-69
2021/10/16 09:06:00;;;;;;;;;;;;;;;9.97;100.00;101432.81;5112807;28;20006;-69
2021/10/16 09:08:27;;;;;;;;;;;;;;;10.25;100.00;101433.59;5112651;28;20018;-69
2021/10/16 09:10:55;;;;;;;;;;;;;;;10.45;100.00;101433.16;5112688;28;19928;-69
2021/10/16 09:13:22;;;;;;;;;;;;;;;10.81;100.00;101423.38;5112461;28;20335;-69
2021/10/16 09:15:49;;;;;;;;;;;;;;;11.10;100.00;101414.13;5112663;28;20022;-74
2021/10/16 09:18:15;;;;;;;;;;;;;;;11.40;100.00;101408.28;5112927;28;20014;-73
2021/10/16 09:20:41;;;;;;;;;;;;;;;11.71;100.00;101409.56;5112725;28;19977;-73
2021/10/16 09:23:09;;;;;;;;;;;;;;;11.61;100.00;101414.00;5110887;28;20010;-74
2021/10/16 09:25:35;;;;;;;;;;;;;;;11.99;100.00;101406.66;5112605;28;19934;-73
2021/10/16 09:28:14;;;;;;;;;;;;;;;12.80;100.00;101415.78;5112260;28;19923;-72
2021/10/16 09:30:45;;;;;;;;;;;;;;;13.67;100.00;101400.56;5112575;28;19928;-72
2021/10/16 09:33:11;;;;;;;;;;;;;;;14.48;100.00;101406.41;5112522;28;19973;-72
2021/10/16 09:35:37;;;;;;;;;;;;;;;14.63;100.00;101400.63;5112396;28;19923;-72
2021/10/16 09:38:04;;;;;;;;;;;;;;;14.34;100.00;101402.16;5112156;28;20014;-72
2021/10/16 09:40:34;;;;;;;;;;;;;;;14.32;100.00;101406.03;5112285;28;19962;-72
2021/10/16 09:43:00;;;;;;;;;;;;;;;13.92;100.00;101402.09;5112215;28;19970;-72
2021/10/16 09:45:28;;;;;;;;;;;;;;;14.18;100.00;101416.28;5111934;28;19924;-71
2021/10/16 09:47:57;;;;;;;;;;;;;;;14.23;100.00;101408.56;5112274;28;19924;-71
2021/10/16 09:50:24;;;;;;;;;;;;;;;14.51;100.00;101405.28;5112041;28;20320;-71
2021/10/16 09:52:51;;;;;;;;;;;;;;;14.55;100.00;101406.75;5112131;28;19930;-69
2021/10/16 09:55:17;;;;;;;;;;;;;;;14.36;100.00;101411.09;5111572;28;19924;-69
2021/10/16 09:57:44;;;;;;;;;;;;;;;14.16;100.00;101410.09;5110648;28;19924;-69
2021/10/16 10:00:11;;;;;;;;;;;;;;;14.06;100.00;101406.41;5105010;28;20011;-69
2021/10/16 10:02:40;;;;;;;;;;;;;;;13.86;100.00;101417.16;5091130;28;19928;-69
2021/10/16 10:05:09;;;;;;;;;;;;;;;13.45;100.00;101407.81;5090224;28;20015;-72
2021/10/16 10:07:36;;;;;;;;;;;;;;;13.38;100.00;101415.66;5091392;28;20459;-72
2021/10/16 10:10:03;;;;;;;;;;;;;;;13.80;100.00;101408.59;5091492;28;20450;-72
2021/10/16 10:12:29;;;;;;;;;;;;;;;14.13;100.00;101402.16;5091520;28;19931;-72
2021/10/16 10:14:56;;;;;;;;;;;;;;;14.02;100.00;101405.78;5091313;28;19930;-74
2021/10/16 10:17:24;;;;;;;;;;;;;;;14.26;100.00;101403.81;5091163;28;20014;-74
2021/10/16 10:19:52;;;;;;;;;;;;;;;14.88;100.00;101400.22;5091365;28;20369;-74
2021/10/16 10:22:20;;;;;;;;;;;;;;;15.22;100.00;101394.44;5091330;28;20353;-74
2021/10/16 10:24:47;;;;;;;;;;;;;;;15.84;100.00;101405.25;5091377;28;20353;-70
2021/10/16 10:27:15;;;;;;;;;;;;;;;15.85;100.00;101396.03;5091100;28;19930;-72
2021/10/16 10:29:42;;;;;;;;;;;;;;;16.06;100.00;101395.03;5091243;28;19967;-72
2021/10/16 10:32:16;;;;;;;;;;;;;;;15.38;100.00;101395.81;5091265;28;20345;-72
2021/10/16 10:34:52;;;;;;;;;;;;;;;14.58;100.00;101395.56;5092321;28;19988;-73
2021/10/16 10:37:19;;;;;;;;;;;;;;;14.65;100.00;101399.50;5095021;28;20363;-73
2021/10/16 10:39:47;;;;;;;;;;;;;;;14.75;100.00;101394.09;5095281;28;19931;-73
2021/10/16 10:42:43;;;;;;;;;;;;;;;14.99;100.00;101388.34;5095458;28;20014;-71
2021/10/16 10:45:43;;;;;;;;;;;;;;;14.85;100.00;101392.28;5095299;28;20382;-71
2021/10/16 10:48:10;;;;;;;;;;;;;;;14.55;100.00;101383.03;5094952;28;20478;-71
2021/10/16 10:50:58;;;;;;;;;;;;;;;14.44;100.00;101384.97;5094893;28;20015;-71
2021/10/16 10:53:30;;;;;;;;;;;;;;;14.01;100.00;101384.94;5094744;28;20401;-72
2021/10/16 10:55:57;;;;;;;;;;;;;;;13.77;100.00;101389.78;5108003;28;19963;-71
2021/10/16 10:58:24;;;;;;;;;;;;;;;14.30;100.00;101384.31;5115201;28;19966;-72
2021/10/16 11:00:51;;;;;;;;;;;;;;;14.82;100.00;101381.63;5098957;28;19997;-71
2021/10/16 11:03:37;;;;;;;;;;;;;;;14.81;100.00;101379.91;5093656;28;19953;-71
2021/10/16 11:06:17;;;;;;;;;;;;;;;14.39;100.00;101379.91;5096046;28;20346;-71
2021/10/16 11:08:45;;;;;;;;;;;;;;;14.06;100.00;101374.50;5109392;28;19955;-72
2021/10/16 11:11:11;;;;;;;;;;;;;;;14.34;100.00;101374.00;5114730;28;19924;-71
2021/10/16 11:13:38;;;;;;;;;;;;;;;14.81;100.00;101371.69;5115020;28;20343;-71
2021/10/16 11:16:05;;;;;;;;;;;;;;;14.62;100.00;101372.44;5114868;28;19932;-71
2021/10/16 11:18:32;;;;;;;;;;;;;;;14.22;100.00;101368.59;5112159;28;19927;-71
2021/10/16 11:21:02;;;;;;;;;;;;;;;14.25;100.00;101362.00;5113679;28;20022;-71
2021/10/16 11:23:29;;;;;;;;;;;;;;;14.23;100.00;101362.13;5115088;28;20526;-71
2021/10/16 11:25:58;;;;;;;;;;;;;;;14.11;100.00;101370.50;5114815;28;20462;-72
2021/10/16 11:28:24;;;;;;;;;;;;;;;13.65;100.00;101361.66;5112955;28;19924;-75
2021/10/16 11:30:54;;;;;;;;;;;;;;;13.69;100.00;101363.13;5114801;28;20494;-71
2021/10/16 11:33:21;;;;;;;;;;;;;;;13.73;100.00;101359.16;5114689;28;19927;-71
2021/10/16 11:35:48;;;;;;;;;;;;;;;13.55;100.00;101358.84;5114461;28;19930;-71
2021/10/16 11:38:16;;;;;;;;;;;;;;;13.20;100.00;101366.22;5112811;28;19934;-71
2021/10/16 11:40:42;;;;;;;;;;;;;;;12.48;100.00;101364.72;5114881;28;20019;-71
2021/10/16 11:43:13;;;;;;;;;;;;;;;12.30;100.00;101367.03;5114523;28;19955;-71
2021/10/16 11:45:40;;;;;;;;;;;;;;;12.16;100.00;101364.50;5113763;28;19959;-72
2021/10/16 11:48:08;;;;;;;;;;;;;;;12.07;100.00;101373.44;5112490;28;20375;-71
2021/10/16 11:50:35;;;;;;;;;;;;;;;11.79;100.00;101368.19;5114403;28;19928;-71
2021/10/16 11:53:09;;;;;;;;;;;;;;;11.72;100.00;101366.94;5114369;28;19977;-71
2021/10/16 11:55:36;;;;;;;;;;;;;;;11.65;100.00;101366.53;5102278;27;20022;-72
2021/10/16 11:58:03;;;;;;;;;;;;;;;11.64;100.00;101364.81;5093837;28;20203;-71
2021/10/16 12:00:32;;;;;;;;;;;;;;;11.52;100.00;101363.88;5096343;28;19934;-71
2021/10/16 12:02:58;;;;;;;;;;;;;;;11.63;100.00;101370.34;5102223;28;20022;-71
2021/10/16 12:05:26;;;;;;;;;;;;;;;11.68;100.00;101365.44;5098441;28;20131;-71
2021/10/16 12:07:52;;;;;;;;;;;;;;;11.84;100.00;101368.72;5095434;28;19959;-71
2021/10/16 12:10:24;;;;;;;;;;;;;;;11.89;100.00;101363.81;5114002;28;19967;-71
2021/10/16 12:12:57;;;;;;;;;;;;;;;11.88;100.00;101364.78;5113862;28;20454;-71
2021/10/16 12:15:24;;;;;;;;;;;;;;;11.79;100.00;101365.47;5112548;28;19923;-71
2021/10/16 12:17:52;;;;;;;;;;;;;;;11.77;100.00;101364.75;5113361;28;20022;-71
2021/10/16 12:20:19;;;;;;;;;;;;;;;11.72;100.00;101372.38;5114176;28;20018;-71
2021/10/16 12:22:55;;;;;;;;;;;;;;;11.66;100.00;101367.41;5111303;28;19966;-71
2021/10/16 12:25:21;;;;;;;;;;;;;;;11.59;100.00;101366.13;5113770;28;20023;-71
2021/10/16 12:27:58;;;;;;;;;;;;;;;11.43;100.00;101364.56;5113539;28;19959;-70
2021/10/16 12:30:24;;;;;;;;;;;;;;;11.33;100.00;101366.22;5110916;28;19923;-72
2021/10/16 12:33:03;;;;;;;;;;;;;;;11.19;100.00;101370.81;5113514;28;19963;-71
2021/10/16 12:35:29;;;;;;;;;;;;;;;11.06;100.00;101370.00;5113206;28;20357;-71
2021/10/16 12:37:56;;;;;;;;;;;;;;;10.99;100.00;101369.56;5113197;28;20451;-71